Time;durP1;ratioP1;P1;durP2;ratioP2;P2;SDS_P1;SDS_P2;PMS_P1;PMS_P2;Temp;Humidity;BMP_temperature;BMP_pressure;BME280_temperature;BME280_humidity;BME280_pressure;Samples;Min_cycle;Max_cycle;Signal;HPM_P1;HPM_P2
2023/03/01 00:01:58;;;;;;;;;;;-1.30;99.90;;;;;;5057811;28;20301;-71
2023/03/01 00:04:24;;;;;;;;;;;-1.40;99.90;;;;;;4988296;28;207388;-71
2023/03/01 00:06:52;;;;;;;;;;;-1.40;99.90;;;;;;5042588;28;20027;-71
2023/03/01 00:09:18;;;;;;;;;;;-1.50;99.90;;;;;;5021046;28;207166;-70
2023/03/01 00:11:44;;;;;;;;;;;-1.40;99.90;;;;;;5077259;28;20213;-72
2023/03/01 00:14:10;;;;;;;;;;;-1.50;99.90;;;;;;5001109;28;213372;-71
2023/03/01 00:16:40;;;;;;;;;;;-1.60;99.90;;;;;;5067219;28;19920;-71
2023/03/01 00:19:16;;;;;;;;;;;-1.60;99.90;;;;;;5003660;28;251442;-71
2023/03/01 00:21:42;;;;;;;;;;;-1.60;99.90;;;;;;5064579;28;19928;-71
2023/03/01 00:24:09;;;;;;;;;;;-1.60;99.90;;;;;;5012055;28;209300;-72
2023/03/01 00:26:35;;;;;;;;;;;-1.70;99.90;;;;;;5068625;28;19933;-72
2023/03/01 00:29:01;;;;;;;;;;;-1.70;99.90;;;;;;5008328;28;206936;-72
2023/03/01 00:31:29;;;;;;;;;;;-1.70;99.90;;;;;;5064950;28;19936;-71
2023/03/01 00:33:58;;;;;;;;;;;-1.80;99.90;;;;;;5036828;28;159971;-71
2023/03/01 00:36:26;;;;;;;;;;;-1.80;99.90;;;;;;5080974;28;19931;-71
2023/03/01 00:38:52;;;;;;;;;;;-1.80;99.90;;;;;;5003898;28;207194;-72
2023/03/01 00:41:22;;;;;;;;;;;-1.80;99.90;;;;;;5040730;28;20014;-72
2023/03/01 00:43:49;;;;;;;;;;;-1.70;99.90;;;;;;5003899;28;235605;-72
2023/03/01 00:46:17;;;;;;;;;;;-1.60;99.90;;;;;;5046508;28;19932;-72
2023/03/01 00:48:43;;;;;;;;;;;-1.60;99.90;;;;;;5010020;28;206792;-72
2023/03/01 00:51:17;;;;;;;;;;;-1.50;99.90;;;;;;5070160;28;19924;-71
2023/03/01 00:53:46;;;;;;;;;;;-1.40;99.90;;;;;;5004271;28;210850;-72
2023/03/01 00:56:13;;;;;;;;;;;-1.40;99.90;;;;;;5074415;28;19924;-72
2023/03/01 00:58:39;;;;;;;;;;;-1.30;99.90;;;;;;5030306;28;253388;-72
2023/03/01 01:01:21;;;;;;;;;;;-1.30;99.90;;;;;;5033560;28;19921;-71
2023/03/01 01:03:52;;;;;;;;;;;-1.20;99.90;;;;;;4993478;28;235092;-72
2023/03/01 01:06:19;;;;;;;;;;;-1.30;99.90;;;;;;5063080;28;19952;-73
2023/03/01 01:08:45;;;;;;;;;;;-1.20;99.90;;;;;;5012520;28;205951;-73
2023/03/01 01:11:12;;;;;;;;;;;-1.20;99.90;;;;;;5074509;28;19931;-72
2023/03/01 01:13:39;;;;;;;;;;;-1.20;99.90;;;;;;5005312;28;210551;-72
2023/03/01 01:16:05;;;;;;;;;;;-1.10;99.90;;;;;;5062722;28;19921;-72
2023/03/01 01:18:31;;;;;;;;;;;-1.20;99.90;;;;;;5025923;28;210221;-71
2023/03/01 01:20:57;;;;;;;;;;;-1.10;99.90;;;;;;5033628;28;19924;-72
2023/03/01 01:23:23;;;;;;;;;;;-1.10;99.90;;;;;;5062434;28;20027;-73
2023/03/01 01:25:49;;;;;;;;;;;-1.20;99.90;;;;;;4976002;28;205302;-72
2023/03/01 01:28:15;;;;;;;;;;;-1.20;99.90;;;;;;5081169;28;19925;-73
2023/03/01 01:30:42;;;;;;;;;;;-1.10;99.90;;;;;;4989944;28;206889;-71
2023/03/01 01:33:08;;;;;;;;;;;-1.20;99.90;;;;;;5059529;28;20551;-72
2023/03/01 01:35:34;;;;;;;;;;;-1.20;99.90;;;;;;5004712;28;211235;-71
2023/03/01 01:37:59;;;;;;;;;;;-1.20;99.90;;;;;;5065298;28;19920;-73
2023/03/01 01:40:25;;;;;;;;;;;-1.20;99.90;;;;;;5011995;28;206326;-72
2023/03/01 01:42:51;;;;;;;;;;;-1.30;99.90;;;;;;5061416;28;20396;-72
2023/03/01 01:45:28;;;;;;;;;;;-1.30;99.90;;;;;;4985101;28;193933;-72
2023/03/01 01:47:55;;;;;;;;;;;-1.30;99.90;;;;;;5064132;28;20392;-71
2023/03/01 01:50:22;;;;;;;;;;;-1.50;99.90;;;;;;4980119;28;210396;-71
2023/03/01 01:52:49;;;;;;;;;;;-1.50;99.90;;;;;;5064706;28;19920;-72
2023/03/01 01:55:17;;;;;;;;;;;-1.50;99.90;;;;;;4999416;28;206453;-71
2023/03/01 01:57:45;;;;;;;;;;;-1.60;99.90;;;;;;5062803;28;19921;-72
2023/03/01 02:00:16;;;;;;;;;;;-1.50;99.90;;;;;;5001595;28;212760;-71
2023/03/01 02:02:43;;;;;;;;;;;-1.60;99.90;;;;;;5042322;28;19925;-71
2023/03/01 02:05:11;;;;;;;;;;;-1.60;99.90;;;;;;4988306;28;207828;-71
2023/03/01 02:07:38;;;;;;;;;;;-1.70;99.90;;;;;;5076255;28;19925;-71
2023/03/01 02:10:04;;;;;;;;;;;-1.70;99.90;;;;;;5003532;28;220701;-73
2023/03/01 02:12:30;;;;;;;;;;;-1.70;99.90;;;;;;5077874;28;20309;-72
2023/03/01 02:14:56;;;;;;;;;;;-1.70;99.90;;;;;;5001788;28;209897;-72
2023/03/01 02:17:23;;;;;;;;;;;-1.70;99.90;;;;;;5051711;28;20677;-72
2023/03/01 02:20:09;;;;;;;;;;;-1.80;99.90;;;;;;5017278;28;208933;-72
2023/03/01 02:22:36;;;;;;;;;;;-1.80;99.90;;;;;;5074223;28;20605;-70
2023/03/01 02:25:05;;;;;;;;;;;-1.80;99.90;;;;;;5013650;28;208617;-72
2023/03/01 02:27:36;;;;;;;;;;;-1.80;99.90;;;;;;5075666;28;20646;-71
2023/03/01 02:30:02;;;;;;;;;;;-2.00;99.90;;;;;;5012971;28;209075;-72
2023/03/01 02:32:28;;;;;;;;;;;-2.00;99.90;;;;;;5062028;28;19928;-73
2023/03/01 02:34:55;;;;;;;;;;;-2.00;99.90;;;;;;4994909;28;209940;-72
2023/03/01 02:37:24;;;;;;;;;;;-2.00;99.90;;;;;;5071285;28;19924;-71
2023/03/01 02:39:53;;;;;;;;;;;-2.00;99.90;;;;;;5015334;28;172196;-72
2023/03/01 02:42:22;;;;;;;;;;;-2.00;99.90;;;;;;5077908;28;19931;-71
2023/03/01 02:44:49;;;;;;;;;;;-2.00;99.90;;;;;;5014436;28;204615;-71
2023/03/01 02:47:15;;;;;;;;;;;-2.00;99.90;;;;;;5080353;28;20304;-71
2023/03/01 02:49:41;;;;;;;;;;;-2.10;99.90;;;;;;5028483;28;206603;-72
2023/03/01 02:52:07;;;;;;;;;;;-2.00;99.90;;;;;;5058372;28;19999;-72
2023/03/01 02:55:11;;;;;;;;;;;-2.10;99.90;;;;;;5025449;28;214937;-71
2023/03/01 02:57:39;;;;;;;;;;;-2.20;99.90;;;;;;5023200;28;19925;-72
2023/03/01 03:00:09;;;;;;;;;;;-2.10;99.90;;;;;;4969337;28;210960;-72
2023/03/01 03:02:38;;;;;;;;;;;-2.20;99.90;;;;;;5015925;28;19930;-73
2023/03/01 03:05:08;;;;;;;;;;;-2.10;99.90;;;;;;4935241;28;201100;-71
2023/03/01 03:07:35;;;;;;;;;;;-2.20;99.90;;;;;;5007064;28;19929;-71
2023/03/01 03:10:02;;;;;;;;;;;-2.20;99.90;;;;;;4961103;28;59960;-72
2023/03/01 03:12:28;;;;;;;;;;;-2.20;99.90;;;;;;5024871;28;19929;-72
2023/03/01 03:14:54;;;;;;;;;;;-2.20;99.90;;;;;;4933808;28;212584;-71
2023/03/01 03:17:19;;;;;;;;;;;-2.30;99.90;;;;;;5022966;28;19935;-71
2023/03/01 03:19:45;;;;;;;;;;;-2.20;99.90;;;;;;4953910;28;216222;-72
2023/03/01 03:22:12;;;;;;;;;;;-2.20;99.90;;;;;;5021653;28;19921;-73
2023/03/01 03:24:38;;;;;;;;;;;-2.30;99.90;;;;;;4959464;28;222987;-72
2023/03/01 03:27:04;;;;;;;;;;;-2.30;99.90;;;;;;4998150;28;19925;-73
2023/03/01 03:29:30;;;;;;;;;;;-2.40;99.90;;;;;;5015308;28;206168;-71
2023/03/01 03:31:58;;;;;;;;;;;-2.40;99.90;;;;;;5063586;28;19924;-72
2023/03/01 03:34:24;;;;;;;;;;;-2.50;99.90;;;;;;5017562;28;207582;-72
2023/03/01 03:36:59;;;;;;;;;;;-2.50;99.90;;;;;;5055805;28;19920;-71
2023/03/01 03:39:34;;;;;;;;;;;-2.50;99.90;;;;;;5018317;28;207342;-71
2023/03/01 03:42:00;;;;;;;;;;;-2.50;99.90;;;;;;5081044;28;20384;-71
2023/03/01 03:44:27;;;;;;;;;;;-2.50;99.90;;;;;;5019499;28;209670;-70
2023/03/01 03:46:53;;;;;;;;;;;-2.60;99.90;;;;;;5085465;28;19924;-71
2023/03/01 03:49:19;;;;;;;;;;;-2.60;99.90;;;;;;5002583;28;206788;-71
2023/03/01 03:51:46;;;;;;;;;;;-2.50;99.90;;;;;;5070284;28;19930;-71
2023/03/01 03:54:12;;;;;;;;;;;-2.50;99.90;;;;;;5029620;28;206888;-72
2023/03/01 03:56:37;;;;;;;;;;;-2.50;99.90;;;;;;5065461;28;19920;-72
2023/03/01 03:59:03;;;;;;;;;;;-2.50;99.90;;;;;;4969065;28;1674844;-72
2023/03/01 04:01:29;;;;;;;;;;;-2.60;99.90;;;;;;5076769;28;19921;-72
2023/03/01 04:03:55;;;;;;;;;;;-2.50;99.90;;;;;;4980843;28;209076;-71
2023/03/01 04:06:21;;;;;;;;;;;-2.50;99.90;;;;;;5082778;28;19924;-72
2023/03/01 04:08:50;;;;;;;;;;;-2.50;99.90;;;;;;5013124;28;208986;-72
2023/03/01 04:11:28;;;;;;;;;;;-2.60;99.90;;;;;;5088085;28;19928;-72
2023/03/01 04:13:56;;;;;;;;;;;-2.70;99.90;;;;;;5009047;28;205994;-73
2023/03/01 04:16:22;;;;;;;;;;;-2.70;99.90;;;;;;5070948;28;19928;-72
2023/03/01 04:18:48;;;;;;;;;;;-2.60;99.90;;;;;;4969174;28;1912849;-72
2023/03/01 04:21:14;;;;;;;;;;;-2.60;99.90;;;;;;5054762;28;20124;-72
2023/03/01 04:23:40;;;;;;;;;;;-2.70;99.90;;;;;;5010287;28;213159;-72
2023/03/01 04:26:06;;;;;;;;;;;-2.70;99.90;;;;;;5074517;28;19939;-72
2023/03/01 04:28:36;;;;;;;;;;;-2.80;99.90;;;;;;5040366;28;211118;-71
2023/03/01 04:31:13;;;;;;;;;;;-2.70;99.90;;;;;;5051226;28;19931;-72
2023/03/01 04:33:51;;;;;;;;;;;-2.80;99.90;;;;;;5026429;28;228899;-71
2023/03/01 04:36:18;;;;;;;;;;;-2.80;99.90;;;;;;5065323;28;19928;-72
2023/03/01 04:38:47;;;;;;;;;;;-2.80;99.90;;;;;;5002863;28;215689;-72
2023/03/01 04:41:13;;;;;;;;;;;-2.90;99.90;;;;;;5045991;28;19938;-72
2023/03/01 04:43:39;;;;;;;;;;;-3.00;99.90;;;;;;5010829;28;209094;-72
2023/03/01 04:46:08;;;;;;;;;;;-3.00;99.90;;;;;;5034044;28;19928;-73
2023/03/01 04:48:35;;;;;;;;;;;-3.00;99.90;;;;;;5024862;28;208026;-72
2023/03/01 04:51:01;;;;;;;;;;;-3.10;99.90;;;;;;5060339;28;19927;-73
2023/03/01 04:53:30;;;;;;;;;;;-3.10;99.90;;;;;;5038942;28;215313;-72
2023/03/01 04:55:56;;;;;;;;;;;-3.10;99.90;;;;;;5019664;28;19928;-71
2023/03/01 04:58:23;;;;;;;;;;;-3.20;99.90;;;;;;5087372;28;19924;-72
2023/03/01 05:00:49;;;;;;;;;;;-3.10;99.90;;;;;;5024744;28;204561;-73
2023/03/01 05:03:17;;;;;;;;;;;-3.20;99.90;;;;;;5088012;28;19920;-70
2023/03/01 05:05:44;;;;;;;;;;;-3.20;99.90;;;;;;4987270;28;221945;-72
2023/03/01 05:08:17;;;;;;;;;;;-3.20;99.90;;;;;;5085915;28;19924;-72
2023/03/01 05:10:50;;;;;;;;;;;-3.20;99.90;;;;;;4998676;28;210344;-72
2023/03/01 05:13:20;;;;;;;;;;;-3.30;99.90;;;;;;5062937;28;19932;-72
2023/03/01 05:16:13;;;;;;;;;;;-3.40;99.90;;;;;;5012100;28;206416;-72
2023/03/01 05:18:39;;;;;;;;;;;-3.40;99.90;;;;;;4999238;28;207298;-72
2023/03/01 05:21:10;;;;;;;;;;;-3.40;99.90;;;;;;5051964;28;19935;-72
2023/03/01 05:23:36;;;;;;;;;;;-3.40;99.90;;;;;;5025407;28;231543;-72
2023/03/01 05:26:03;;;;;;;;;;;-3.50;99.90;;;;;;5082367;28;19920;-72
2023/03/01 05:28:30;;;;;;;;;;;-3.40;99.90;;;;;;5065061;28;207355;-73
2023/03/01 05:30:56;;;;;;;;;;;-3.50;99.90;;;;;;5050355;28;179232;-73
2023/03/01 05:33:22;;;;;;;;;;;-3.50;99.90;;;;;;5046821;28;19928;-73
2023/03/01 05:35:49;;;;;;;;;;;-3.50;99.90;;;;;;5026549;28;139972;-73
2023/03/01 05:38:15;;;;;;;;;;;-3.50;99.90;;;;;;5067110;28;20424;-72
2023/03/01 05:40:42;;;;;;;;;;;-3.60;99.90;;;;;;5011806;28;207874;-72
2023/03/01 05:43:08;;;;;;;;;;;-3.60;99.90;;;;;;5083716;28;19931;-72
2023/03/01 05:45:35;;;;;;;;;;;-3.70;99.90;;;;;;4997808;28;205939;-73
2023/03/01 05:48:05;;;;;;;;;;;-3.70;99.90;;;;;;5087284;28;19924;-71
2023/03/01 05:50:35;;;;;;;;;;;-3.70;99.90;;;;;;5030796;28;214146;-72
2023/03/01 05:53:22;;;;;;;;;;;-3.60;99.90;;;;;;5092452;28;19924;-72
2023/03/01 05:55:49;;;;;;;;;;;-3.60;99.90;;;;;;5010657;28;205839;-71
2023/03/01 05:58:17;;;;;;;;;;;-3.70;99.90;;;;;;5066846;28;19927;-72
2023/03/01 06:00:43;;;;;;;;;;;-3.70;99.90;;;;;;5005609;28;210785;-73
2023/03/01 06:03:10;;;;;;;;;;;-3.60;99.90;;;;;;5060909;28;19932;-72
2023/03/01 06:05:36;;;;;;;;;;;-3.70;99.90;;;;;;4958464;28;216391;-72
2023/03/01 06:08:02;;;;;;;;;;;-3.60;99.90;;;;;;5061145;28;19925;-72
2023/03/01 06:10:29;;;;;;;;;;;-3.70;99.90;;;;;;5001800;28;207279;-73
2023/03/01 06:12:55;;;;;;;;;;;-3.70;99.90;;;;;;5067008;28;19920;-72
2023/03/01 06:15:21;;;;;;;;;;;-3.70;99.90;;;;;;4990589;28;215067;-71
2023/03/01 06:17:47;;;;;;;;;;;-3.70;99.90;;;;;;5062468;28;19936;-73
2023/03/01 06:20:15;;;;;;;;;;;-3.70;99.90;;;;;;4999288;28;206752;-73
2023/03/01 06:22:41;;;;;;;;;;;-3.70;99.90;;;;;;5045570;28;19924;-73
2023/03/01 06:25:08;;;;;;;;;;;-3.60;99.90;;;;;;4994883;28;207588;-73
2023/03/01 06:27:34;;;;;;;;;;;-3.70;99.90;;;;;;5064014;28;19932;-73
2023/03/01 06:29:59;;;;;;;;;;;-3.60;99.90;;;;;;5010560;28;208523;-72
2023/03/01 06:32:25;;;;;;;;;;;-3.50;99.90;;;;;;5080547;28;19982;-72
2023/03/01 06:34:51;;;;;;;;;;;-3.60;99.90;;;;;;5014335;28;216558;-72
2023/03/01 06:37:17;;;;;;;;;;;-3.50;99.90;;;;;;5086615;28;20010;-72
2023/03/01 06:39:43;;;;;;;;;;;-3.50;99.90;;;;;;5001174;28;207430;-72
2023/03/01 06:42:09;;;;;;;;;;;-3.50;99.90;;;;;;5072468;28;20389;-72
2023/03/01 06:44:36;;;;;;;;;;;-3.50;99.90;;;;;;5016018;28;209093;-72
2023/03/01 06:47:03;;;;;;;;;;;-3.60;99.90;;;;;;5075139;28;20393;-72
2023/03/01 06:49:29;;;;;;;;;;;-3.60;99.90;;;;;;5024203;28;211069;-73
2023/03/01 06:51:56;;;;;;;;;;;-3.60;99.90;;;;;;5058427;28;19924;-73
2023/03/01 06:54:22;;;;;;;;;;;-3.50;99.90;;;;;;5025104;28;210341;-72
2023/03/01 06:56:49;;;;;;;;;;;-3.50;99.90;;;;;;5045361;28;19924;-71
2023/03/01 06:59:15;;;;;;;;;;;-3.40;99.90;;;;;;5017900;28;215697;-72
2023/03/01 07:01:41;;;;;;;;;;;-3.50;99.90;;;;;;5081827;28;19931;-71
2023/03/01 07:04:07;;;;;;;;;;;-3.40;99.90;;;;;;5005775;28;249860;-70
2023/03/01 07:06:33;;;;;;;;;;;-3.50;99.90;;;;;;5065089;28;19924;-72
2023/03/01 07:08:59;;;;;;;;;;;-3.30;99.90;;;;;;5024034;28;207409;-72
2023/03/01 07:11:25;;;;;;;;;;;-3.40;99.90;;;;;;5083591;28;19931;-71
2023/03/01 07:13:50;;;;;;;;;;;-3.30;99.90;;;;;;5030036;28;210518;-70
2023/03/01 07:16:16;;;;;;;;;;;-3.30;99.90;;;;;;5064276;28;19943;-70
2023/03/01 07:18:42;;;;;;;;;;;-3.20;99.90;;;;;;5009554;28;211400;-71
2023/03/01 07:21:09;;;;;;;;;;;-3.10;99.90;;;;;;5086716;28;19928;-72
2023/03/01 07:23:35;;;;;;;;;;;-3.00;99.90;;;;;;5013365;28;208003;-71
2023/03/01 07:26:01;;;;;;;;;;;-3.00;99.90;;;;;;5075566;28;19924;-70
2023/03/01 07:28:27;;;;;;;;;;;-2.80;99.90;;;;;;5073996;28;116132;-71
2023/03/01 07:30:53;;;;;;;;;;;-2.80;99.90;;;;;;5023111;28;111569;-71
2023/03/01 07:33:19;;;;;;;;;;;-2.70;99.90;;;;;;5054980;28;19920;-71
2023/03/01 07:35:45;;;;;;;;;;;-2.70;99.90;;;;;;5031020;28;208143;-71
2023/03/01 07:38:11;;;;;;;;;;;-2.60;99.90;;;;;;5096190;28;19926;-70
2023/03/01 07:40:37;;;;;;;;;;;-2.60;99.90;;;;;;5010702;28;207397;-71
2023/03/01 07:43:03;;;;;;;;;;;-2.60;99.90;;;;;;5069101;28;19920;-71
2023/03/01 07:45:29;;;;;;;;;;;-2.50;99.90;;;;;;5021147;28;202391;-72
2023/03/01 07:47:55;;;;;;;;;;;-2.50;99.90;;;;;;5086747;28;19936;-70
2023/03/01 07:50:21;;;;;;;;;;;-2.40;99.90;;;;;;5023808;28;212851;-70
2023/03/01 07:52:48;;;;;;;;;;;-2.30;99.90;;;;;;5064656;28;19931;-71
2023/03/01 07:55:14;;;;;;;;;;;-2.20;99.90;;;;;;5024698;28;211881;-70
2023/03/01 07:57:40;;;;;;;;;;;-2.20;99.90;;;;;;5079780;28;19932;-71
2023/03/01 08:00:07;;;;;;;;;;;-2.00;99.90;;;;;;4990419;28;214626;-71
2023/03/01 08:02:33;;;;;;;;;;;-2.00;99.90;;;;;;5076561;28;19924;-71
2023/03/01 08:04:59;;;;;;;;;;;-1.90;99.90;;;;;;4973627;28;229332;-72
2023/03/01 08:07:24;;;;;;;;;;;-1.80;99.90;;;;;;5071007;28;19928;-70
2023/03/01 08:09:50;;;;;;;;;;;-1.70;99.90;;;;;;5026849;28;222776;-71
2023/03/01 08:12:16;;;;;;;;;;;-1.60;99.90;;;;;;5050637;28;19928;-71
2023/03/01 08:14:42;;;;;;;;;;;-1.50;99.90;;;;;;5013035;28;206624;-71
2023/03/01 08:17:08;;;;;;;;;;;-1.40;99.90;;;;;;5059564;28;19927;-71
2023/03/01 08:19:34;;;;;;;;;;;-1.30;99.90;;;;;;5006948;28;210178;-71
2023/03/01 08:22:03;;;;;;;;;;;-1.20;99.90;;;;;;5082052;28;19935;-70
2023/03/01 08:24:29;;;;;;;;;;;-1.00;99.90;;;;;;5013796;28;220238;-70
2023/03/01 08:26:55;;;;;;;;;;;-0.90;99.90;;;;;;5083744;28;19954;-70
2023/03/01 08:29:22;;;;;;;;;;;-0.80;99.90;;;;;;5022051;28;206561;-71
2023/03/01 08:31:48;;;;;;;;;;;-0.70;99.90;;;;;;5072653;28;20313;-70
2023/03/01 08:34:15;;;;;;;;;;;-0.60;99.90;;;;;;5002500;28;222438;-71
2023/03/01 08:36:42;;;;;;;;;;;-0.50;99.90;;;;;;5049962;28;19924;-70
2023/03/01 08:39:12;;;;;;;;;;;-0.40;99.90;;;;;;5029329;28;207790;-70
2023/03/01 08:41:38;;;;;;;;;;;-0.30;99.90;;;;;;5078054;28;20518;-70
2023/03/01 08:44:04;;;;;;;;;;;-0.30;99.90;;;;;;5026678;28;230369;-71
2023/03/01 08:46:36;;;;;;;;;;;-0.10;99.90;;;;;;5091392;28;19924;-71
2023/03/01 08:49:12;;;;;;;;;;;-0.10;99.90;;;;;;5009372;28;207812;-71
2023/03/01 08:51:38;;;;;;;;;;;0.00;99.90;;;;;;5063739;28;19924;-72
2023/03/01 08:54:05;;;;;;;;;;;0.10;99.90;;;;;;5033660;28;151118;-71
2023/03/01 08:56:31;;;;;;;;;;;0.10;99.90;;;;;;5085263;28;19928;-71
2023/03/01 08:58:57;;;;;;;;;;;0.30;99.90;;;;;;5013110;28;207156;-72
2023/03/01 09:01:23;;;;;;;;;;;0.30;99.90;;;;;;5053266;28;20307;-72
2023/03/01 09:03:49;;;;;;;;;;;0.40;99.90;;;;;;5016585;28;225672;-71
2023/03/01 09:06:15;;;;;;;;;;;0.40;99.90;;;;;;5062055;28;19923;-72
2023/03/01 09:08:42;;;;;;;;;;;0.50;99.90;;;;;;5011333;28;248406;-70
2023/03/01 09:11:09;;;;;;;;;;;0.60;99.90;;;;;;5067183;28;19932;-71
2023/03/01 09:13:35;;;;;;;;;;;0.70;99.90;;;;;;5004907;28;258078;-70
2023/03/01 09:16:02;;;;;;;;;;;0.80;99.90;;;;;;5056397;28;19924;-71
2023/03/01 09:18:28;;;;;;;;;;;0.90;99.90;;;;;;5045658;28;217713;-69
2023/03/01 09:21:06;;;;;;;;;;;1.00;99.90;;;;;;4995498;28;208836;-70
2023/03/01 09:23:34;;;;;;;;;;;1.20;99.90;;;;;;5023971;28;207287;-69
2023/03/01 09:26:00;;;;;;;;;;;1.30;99.90;;;;;;5022108;28;20378;-71
2023/03/01 09:28:26;;;;;;;;;;;1.40;99.90;;;;;;5057256;28;206756;-69
2023/03/01 09:30:52;;;;;;;;;;;1.50;99.90;;;;;;5024590;28;205218;-71
2023/03/01 09:33:18;;;;;;;;;;;1.50;99.90;;;;;;5080751;28;19920;-71
2023/03/01 09:35:46;;;;;;;;;;;1.60;99.90;;;;;;5023093;28;207308;-71
2023/03/01 09:38:13;;;;;;;;;;;1.70;99.90;;;;;;5068360;28;19925;-72
2023/03/01 09:40:45;;;;;;;;;;;1.70;99.90;;;;;;5013692;28;207434;-72
2023/03/01 09:43:21;;;;;;;;;;;1.90;99.90;;;;;;5066716;28;19924;-72
2023/03/01 09:45:49;;;;;;;;;;;2.00;99.90;;;;;;5021041;28;208698;-72
2023/03/01 09:48:17;;;;;;;;;;;2.00;99.90;;;;;;5066440;28;20604;-72
2023/03/01 09:50:46;;;;;;;;;;;2.10;99.90;;;;;;4989948;28;206423;-72
2023/03/01 09:53:19;;;;;;;;;;;2.20;99.90;;;;;;5068717;28;19925;-72
2023/03/01 09:55:50;;;;;;;;;;;2.30;99.90;;;;;;5004475;28;233568;-71
2023/03/01 09:58:38;;;;;;;;;;;2.40;99.90;;;;;;5067918;28;20264;-71
2023/03/01 10:01:23;;;;;;;;;;;2.50;99.90;;;;;;4983221;28;200458;-72
2023/03/01 10:04:06;;;;;;;;;;;2.60;99.90;;;;;;4989137;28;231672;-72
2023/03/01 10:06:32;;;;;;;;;;;2.70;99.90;;;;;;5055503;28;20043;-73
2023/03/01 10:09:27;;;;;;;;;;;2.80;99.90;;;;;;5011770;28;225716;-72
2023/03/01 10:11:54;;;;;;;;;;;2.80;99.90;;;;;;5051082;28;20293;-73
2023/03/01 10:14:29;;;;;;;;;;;2.90;99.90;;;;;;5003847;28;200787;-74
2023/03/01 10:16:58;;;;;;;;;;;3.00;99.90;;;;;;5061080;28;19928;-72
2023/03/01 10:19:28;;;;;;;;;;;3.10;99.90;;;;;;5023627;28;207500;-72
2023/03/01 10:21:57;;;;;;;;;;;3.20;99.90;;;;;;5073747;28;19931;-73
2023/03/01 10:24:23;;;;;;;;;;;3.30;99.90;;;;;;4991085;28;216955;-74
2023/03/01 10:27:05;;;;;;;;;;;3.30;99.90;;;;;;5050357;28;19925;-73
2023/03/01 10:29:37;;;;;;;;;;;3.40;99.90;;;;;;4992773;28;256038;-73
2023/03/01 10:32:03;;;;;;;;;;;3.50;99.90;;;;;;5046102;28;19925;-75
2023/03/01 10:34:30;;;;;;;;;;;3.60;99.90;;;;;;5025611;28;208071;-74
2023/03/01 10:36:59;;;;;;;;;;;3.70;99.90;;;;;;5070454;28;19920;-74
2023/03/01 10:39:25;;;;;;;;;;;3.80;99.90;;;;;;5005814;28;210721;-75
2023/03/01 10:42:15;;;;;;;;;;;3.80;99.90;;;;;;5064003;28;19924;-75
2023/03/01 10:44:45;;;;;;;;;;;3.90;99.90;;;;;;4986138;28;237224;-76
2023/03/01 10:47:13;;;;;;;;;;;4.00;99.90;;;;;;5053077;28;19932;-75
2023/03/01 10:49:39;;;;;;;;;;;4.10;99.90;;;;;;4993608;28;224036;-75
2023/03/01 10:52:17;;;;;;;;;;;4.10;99.90;;;;;;5058878;28;19982;-76
2023/03/01 10:55:03;;;;;;;;;;;4.20;99.90;;;;;;5005239;28;269730;-76
2023/03/01 10:57:31;;;;;;;;;;;4.30;99.90;;;;;;5083777;28;19924;-76
2023/03/01 11:00:18;;;;;;;;;;;4.40;99.90;;;;;;5047481;28;207776;-75
2023/03/01 11:02:50;;;;;;;;;;;4.40;99.90;;;;;;5084209;28;19928;-76
2023/03/01 11:05:23;;;;;;;;;;;4.50;99.90;;;;;;4999358;28;279109;-74
2023/03/01 11:07:51;;;;;;;;;;;4.50;99.90;;;;;;5066441;28;20498;-75
2023/03/01 11:10:18;;;;;;;;;;;4.60;99.90;;;;;;4988011;28;219947;-75
2023/03/01 11:12:45;;;;;;;;;;;4.60;99.90;;;;;;5061925;28;19935;-75
2023/03/01 11:15:26;;;;;;;;;;;4.70;99.90;;;;;;5008282;28;206350;-75
2023/03/01 11:17:53;;;;;;;;;;;4.80;99.90;;;;;;5062936;28;20003;-76
2023/03/01 11:20:35;;;;;;;;;;;4.80;99.90;;;;;;5006509;28;248747;-76
2023/03/01 11:23:03;;;;;;;;;;;4.90;99.90;;;;;;5065225;28;19931;-76
2023/03/01 11:25:32;;;;;;;;;;;5.00;99.90;;;;;;4986832;28;352651;-76
2023/03/01 11:27:59;;;;;;;;;;;5.10;99.90;;;;;;5065363;28;20598;-75
2023/03/01 11:30:35;;;;;;;;;;;5.20;99.90;;;;;;4998759;28;262574;-75
2023/03/01 11:33:07;;;;;;;;;;;5.30;99.90;;;;;;5057747;28;19931;-76
2023/03/01 11:35:38;;;;;;;;;;;5.70;99.90;;;;;;5005463;28;206033;-76
2023/03/01 11:38:22;;;;;;;;;;;6.30;99.90;;;;;;5067102;28;20312;-76
2023/03/01 11:40:58;;;;;;;;;;;6.80;99.90;;;;;;5016944;28;174685;-76
2023/03/01 11:43:34;;;;;;;;;;;7.60;99.90;;;;;;5064287;28;19929;-75
2023/03/01 11:46:03;;;;;;;;;;;8.50;99.90;;;;;;4980346;28;242756;-74
2023/03/01 11:48:34;;;;;;;;;;;9.20;99.90;;;;;;5046826;28;205699;-73
2023/03/01 11:51:05;;;;;;;;;;;9.80;99.90;;;;;;5025830;28;19928;-75
2023/03/01 11:54:09;;;;;;;;;;;10.40;99.90;;;;;;5034509;28;206473;-74
2023/03/01 11:56:40;;;;;;;;;;;10.90;99.90;;;;;;4938402;28;19930;-74
2023/03/01 11:59:15;;;;;;;;;;;11.50;99.90;;;;;;4948293;28;212528;-75
2023/03/01 12:01:47;;;;;;;;;;;12.10;99.90;;;;;;4980494;28;20410;-75
2023/03/01 12:04:32;;;;;;;;;;;12.50;99.20;;;;;;4833207;28;3003475;-74
2023/03/01 12:07:05;;;;;;;;;;;12.80;99.40;;;;;;4992710;28;19921;-75
2023/03/01 12:09:43;;;;;;;;;;;12.80;99.50;;;;;;4953439;28;190246;-75
2023/03/01 12:12:27;;;;;;;;;;;13.10;99.40;;;;;;5004115;28;19925;-75
2023/03/01 12:14:58;;;;;;;;;;;13.50;99.10;;;;;;4947854;28;205365;-72
2023/03/01 12:17:46;;;;;;;;;;;14.10;98.80;;;;;;5000090;28;19928;-74
2023/03/01 12:20:17;;;;;;;;;;;14.30;98.50;;;;;;4951922;28;206938;-74
2023/03/01 12:22:49;;;;;;;;;;;14.60;97.50;;;;;;4984923;28;20390;-75
2023/03/01 12:25:28;;;;;;;;;;;14.80;97.70;;;;;;4946212;28;210286;-75
2023/03/01 12:28:00;;;;;;;;;;;14.80;96.90;;;;;;5056216;28;20394;-75
2023/03/01 12:30:25;;;;;;;;;;;14.50;97.20;;;;;;5001701;28;222817;-74
2023/03/01 12:33:02;;;;;;;;;;;14.90;97.50;;;;;;5064688;28;20305;-74
2023/03/01 12:35:34;;;;;;;;;;;15.00;97.00;;;;;;5003362;28;246279;-73
2023/03/01 12:38:06;;;;;;;;;;;15.30;96.90;;;;;;5067646;28;19925;-73
2023/03/01 12:40:32;;;;;;;;;;;15.30;96.60;;;;;;5027367;28;208869;-74
2023/03/01 12:43:04;;;;;;;;;;;15.60;95.70;;;;;;5067392;28;20393;-74
2023/03/01 12:45:50;;;;;;;;;;;15.80;95.30;;;;;;5015211;28;206259;-73
2023/03/01 12:48:45;;;;;;;;;;;16.00;94.90;;;;;;5069849;28;19928;-73
2023/03/01 12:51:14;;;;;;;;;;;16.20;95.50;;;;;;4999070;28;37931;-73
2023/03/01 12:53:50;;;;;;;;;;;16.40;94.50;;;;;;5015031;28;242093;-74
2023/03/01 12:56:21;;;;;;;;;;;16.50;95.20;;;;;;5052831;28;20437;-73
2023/03/01 12:58:53;;;;;;;;;;;16.10;93.40;;;;;;5008625;28;206324;-73
2023/03/01 13:01:25;;;;;;;;;;;16.20;94.70;;;;;;5085837;28;19920;-74
2023/03/01 13:04:07;;;;;;;;;;;16.40;94.50;;;;;;5004996;28;206686;-73
2023/03/01 13:06:52;;;;;;;;;;;16.40;94.30;;;;;;5069601;28;19920;-74
2023/03/01 13:09:35;;;;;;;;;;;16.80;94.40;;;;;;5001649;28;185598;-74
2023/03/01 13:12:01;;;;;;;;;;;16.70;94.50;;;;;;5043750;28;19935;-73
2023/03/01 13:14:33;;;;;;;;;;;16.90;94.30;;;;;;5009320;28;210450;-73
2023/03/01 13:16:58;;;;;;;;;;;17.30;94.30;;;;;;5050671;28;19925;-73
2023/03/01 13:19:32;;;;;;;;;;;17.70;94.00;;;;;;5006556;28;207766;-74
2023/03/01 13:21:58;;;;;;;;;;;18.10;93.10;;;;;;5053780;28;20412;-73
2023/03/01 13:24:28;;;;;;;;;;;18.00;93.70;;;;;;5008669;28;196561;-73
2023/03/01 13:27:06;;;;;;;;;;;17.70;92.50;;;;;;5062487;28;19995;-73
2023/03/01 13:29:44;;;;;;;;;;;17.90;93.80;;;;;;5027297;28;218070;-73
2023/03/01 13:32:28;;;;;;;;;;;18.30;92.70;;;;;;5073649;28;19927;-73
2023/03/01 13:34:58;;;;;;;;;;;18.30;92.80;;;;;;5022609;28;217583;-73
2023/03/01 13:37:25;;;;;;;;;;;18.70;93.20;;;;;;5070694;28;19928;-73
2023/03/01 13:39:52;;;;;;;;;;;18.60;92.60;;;;;;5016903;28;222526;-73
2023/03/01 13:42:30;;;;;;;;;;;18.80;91.50;;;;;;5062380;28;20289;-74
2023/03/01 13:44:57;;;;;;;;;;;18.70;90.90;;;;;;5012336;28;197782;-75
2023/03/01 13:47:23;;;;;;;;;;;18.40;92.10;;;;;;5051735;28;19991;-74
2023/03/01 13:49:58;;;;;;;;;;;18.60;91.70;;;;;;5010359;28;205816;-73
2023/03/01 13:52:39;;;;;;;;;;;18.40;92.00;;;;;;5064024;28;20293;-74
2023/03/01 13:55:06;;;;;;;;;;;18.60;92.10;;;;;;5003338;28;253048;-73
2023/03/01 13:57:34;;;;;;;;;;;18.80;92.10;;;;;;5065085;28;19931;-73
2023/03/01 14:00:00;;;;;;;;;;;19.00;91.20;;;;;;5012528;28;181721;-73
2023/03/01 14:02:26;;;;;;;;;;;19.10;91.60;;;;;;5042475;28;19951;-73
2023/03/01 14:04:58;;;;;;;;;;;19.20;91.50;;;;;;5006805;28;281892;-73
2023/03/01 14:07:26;;;;;;;;;;;19.30;90.20;;;;;;5067923;28;19920;-73
2023/03/01 14:09:54;;;;;;;;;;;19.20;87.70;;;;;;5016494;28;220990;-73
2023/03/01 14:12:39;;;;;;;;;;;19.00;89.00;;;;;;5066605;28;19975;-74
2023/03/01 14:15:24;;;;;;;;;;;19.20;90.30;;;;;;5018789;28;209732;-73
2023/03/01 14:17:59;;;;;;;;;;;19.40;90.70;;;;;;5086759;28;19931;-73
2023/03/01 14:20:35;;;;;;;;;;;19.50;90.90;;;;;;5030653;28;207493;-73
2023/03/01 14:23:08;;;;;;;;;;;19.10;90.50;;;;;;5084158;28;19927;-73
2023/03/01 14:25:35;;;;;;;;;;;18.60;89.40;;;;;;5000490;28;224256;-73
2023/03/01 14:28:20;;;;;;;;;;;18.30;90.10;;;;;;5055062;28;19929;-73